M I D A S
Marine Information and Data Acquisition System
Tripno 666 of the Zeeleeuw from 2004-03-12 07:35:30 to 2004-03-12 13:04:31
Back to CruiseResearch ActivitiesStationsMapUnderway DataData graphs

EquipmentUnitsComment
TimeDGPSUTC
LatitudeDGPSDM.mWGS84
LongitudeDGPSDM.mWGS84
HeadingGyrodeg 
SOGDGPSknotsSpeed over ground
COGDGPSdegCourse over ground
DepthEcho soundermeters200 kHz
Missing or incorrect values are displayed as -999
Navigation data collected by the RV Zeeleeuw from 2004-03-12 07:35:30 to 2004-03-12 13:04:31
Time Latitude Longitude Heading SOG COG Depth
2004-03-12 07:36:33 51°13.679 2°55.759 44.3 1 251 12.6
2004-03-12 07:37:33 51°13.695 2°55.736 340.6 2.3 328 12.6
2004-03-12 07:38:33 51°13.768 2°55.673 340.4 6.9 335 10
2004-03-12 07:39:34 51°13.885 2°55.59 341.2 8 336 9.4
2004-03-12 07:40:33 51°14.009 2°55.502 341.8 8.4 336 10
2004-03-12 07:41:33 51°14.144 2°55.399 337.5 9.3 332 10.3
2004-03-12 07:42:34 51°14.288 2°55.209 319.2 12 312 10.2
2004-03-12 07:43:33 51°14.408 2°54.946 310.6 12.6 305 10.7
2004-03-12 07:44:33 51°14.526 2°54.734 324.7 9.2 314 10.1
2004-03-12 07:45:33 51°14.626 2°54.587 332.4 6.7 322 9.8
2004-03-12 07:46:33 51°14.7 2°54.522 353.4 4.2 337 9.7
2004-03-12 07:47:33 51°14.752 2°54.488 357 2.9 336 9.8
2004-03-12 07:48:33 51°14.791 2°54.459 358.5 2.3 333 9.6
2004-03-12 07:49:34 51°14.856 2°54.392 333.2 8.6 327 9.3
2004-03-12 07:50:33 51°15.016 2°54.223 334.2 13.2 327 8.2
2004-03-12 07:51:33 51°15.204 2°54.015 333.2 14 328 8.8
2004-03-12 07:52:33 51°15.415 2°53.851 339.6 14.2 330 9.5
2004-03-12 07:53:34 51°15.627 2°53.672 343.4 14.2 336 10.4
2004-03-12 07:54:33 51°15.837 2°53.508 342.1 14.3 333 11
2004-03-12 07:55:33 51°16.051 2°53.345 343.1 14.3 335 11.4
2004-03-12 07:56:33 51°16.267 2°53.184 342.9 14.3 335 11.7
2004-03-12 07:57:33 51°16.482 2°53.023 342.6 14.3 335 11.6
2004-03-12 07:58:33 51°16.695 2°52.861 342.5 14.2 335 10.6
2004-03-12 07:59:33 51°16.904 2°52.703 341.4 13.9 334 8.8
2004-03-12 08:00:33 51°17.116 2°52.543 342.5 13.9 335 9
2004-03-12 08:01:33 51°17.322 2°52.362 337.2 14.3 330 9.6
2004-03-12 08:02:33 51°17.514 2°52.139 331.2 14.3 324 9.9
2004-03-12 08:03:34 51°17.69 2°51.875 321.5 14.3 315 9.8
2004-03-12 08:04:34 51°17.858 2°51.606 322.2 14.4 315 9.6
2004-03-12 08:05:33 51°18.025 2°51.338 322.6 14.6 315 10.8
2004-03-12 08:06:33 51°18.198 2°51.066 322 14.5 315 12.3
2004-03-12 08:07:34 51°18.351 2°50.759 314.2 14.5 307 13.1
2004-03-12 08:08:34 51°18.496 2°50.449 313.3 14.5 307 13.8
2004-03-12 08:09:34 51°18.645 2°50.142 314.6 14.6 307 13.2
2004-03-12 08:10:33 51°18.79 2°49.842 314 14.5 307 11.5
2004-03-12 08:11:34 51°18.939 2°49.53 313.7 14.6 307 10.1
2004-03-12 08:12:33 51°19.086 2°49.222 313.1 14.9 306 11.9
2004-03-12 08:13:34 51°19.238 2°48.903 313.3 14.9 308 14.5
2004-03-12 08:14:33 51°19.368 2°48.581 302.1 14.7 296 16.8
2004-03-12 08:15:33 51°19.469 2°48.224 300 14.8 295 19.2
2004-03-12 08:16:33 51°19.573 2°47.867 300.3 15 295 21.1
2004-03-12 08:17:34 51°19.683 2°47.505 301.3 14.8 296 21.3
2004-03-12 08:18:33 51°19.79 2°47.161 300.8 14.6 298 20.7
2004-03-12 08:19:34 51°19.876 2°46.794 294.1 14.4 288 18.9
2004-03-12 08:20:33 51°19.954 2°46.433 289.5 14.5 282 14.8
2004-03-12 08:21:33 51°19.991 2°46.048 274.7 14.7 272 13.4
2004-03-12 08:22:33 51°19.908 2°45.688 240.3 14.5 240 12.2
2004-03-12 08:23:33 51°19.789 2°45.348 242 14.8 239 17.3
2004-03-12 08:24:34 51°19.674 2°44.995 244.2 14.8 244 20.4
2004-03-12 08:25:34 51°19.563 2°44.644 243.7 14.7 244 21.3
2004-03-12 08:26:34 51°19.458 2°44.294 245.2 14.7 244 21.8
2004-03-12 08:27:34 51°19.352 2°43.94 244.7 14.7 245 22.5
2004-03-12 08:28:34 51°19.241 2°43.593 245 14.4 245 23
2004-03-12 08:29:33 51°19.136 2°43.254 236.3 14.2 235 23.2
2004-03-12 08:30:34 51°18.988 2°42.95 232.1 14.3 233 23.2
2004-03-12 08:31:34 51°18.847 2°42.641 235 14.5 236 23
2004-03-12 08:32:33 51°18.727 2°42.317 241.1 14.3 237 22.7
2004-03-12 08:33:34 51°18.6 2°41.986 239.8 14.4 238 22.2
2004-03-12 08:34:34 51°18.473 2°41.658 239.9 14.6 239 21.6
2004-03-12 08:35:33 51°18.351 2°41.331 240.4 14.5 239 16.7
2004-03-12 08:36:34 51°18.226 2°40.99 240.4 14.6 238 17.6
2004-03-12 08:37:33 51°18.106 2°40.66 240.4 14.4 240 13.8
2004-03-12 08:38:34 51°17.979 2°40.318 239.2 14.9 239 15.9
2004-03-12 08:39:33 51°17.867 2°40.018 236 10 235 16.6
2004-03-12 08:40:34 51°17.791 2°39.866 219.1 4.8 230 17.8
2004-03-12 08:41:33 51°17.768 2°39.812 189.2 1.8 248 17.1
2004-03-12 08:42:34 51°17.759 2°39.768 188.9 1.6 255 17.6
2004-03-12 08:43:34 51°17.753 2°39.724 193.4 1.7 261 18.1
2004-03-12 08:44:34 51°17.75 2°39.678 197.8 1.8 265 18.5
2004-03-12 08:45:33 51°17.749 2°39.631 208.3 1.8 270 18
2004-03-12 08:46:34 51°17.75 2°39.581 216.5 2 274 16.1
2004-03-12 08:47:33 51°17.752 2°39.531 220.3 1.9 272 16.6
2004-03-12 08:48:33 51°17.753 2°39.482 221.2 1.8 270 19
2004-03-12 08:49:33 51°17.752 2°39.434 218.7 1.8 268 20.7
2004-03-12 08:50:33 51°17.751 2°39.386 217.3 1.8 267 21.9
2004-03-12 08:51:33 51°17.749 2°39.338 214.3 1.8 265 22.3
2004-03-12 08:52:33 51°17.745 2°39.29 204.6 1.8 260 23.6
2004-03-12 08:53:34 51°17.739 2°39.243 195.8 1.7 256 24
2004-03-12 08:54:33 51°17.731 2°39.199 190.1 1.7 254 24.3
2004-03-12 08:55:33 51°17.723 2°39.156 181.8 1.6 252 24.6
2004-03-12 08:56:34 51°17.697 2°39.135 145.7 2.1 168 24.5
2004-03-12 08:57:33 51°17.692 2°39.188 83.3 3.3 68 24
2004-03-12 08:58:34 51°17.718 2°39.29 87 4.4 77 23
2004-03-12 08:59:33 51°17.717 2°39.397 107 2.5 102 20.4
2004-03-12 09:00:33 51°17.717 2°39.403 117.8 0.3 290 20
2004-03-12 09:01:34 51°17.72 2°39.388 122.8 0.8 283 20.5
2004-03-12 09:02:34 51°17.724 2°39.361 119.9 1.2 286 21.7
2004-03-12 09:03:33 51°17.727 2°39.357 109.7 1.2 103 21.3
2004-03-12 09:04:33 51°17.718 2°39.428 106.8 3.6 102 19.6
2004-03-12 09:05:34 51°17.69 2°39.521 126.7 3.4 129 16.2
2004-03-12 09:06:34 51°17.651 2°39.557 146.8 2.4 165 18.2
2004-03-12 09:07:33 51°17.616 2°39.565 147.3 1.9 174 17.9
2004-03-12 09:08:33 51°17.588 2°39.568 142.4 1.5 176 16.7
2004-03-12 09:09:34 51°17.563 2°39.573 136.1 1.7 161 15.2
2004-03-12 09:10:34 51°17.535 2°39.606 128.4 2.5 138 13.7
2004-03-12 09:11:34 51°17.504 2°39.657 127.3 2.8 131 11.9
2004-03-12 09:12:34 51°17.466 2°39.701 143.5 3.1 160 11
2004-03-12 09:13:33 51°17.412 2°39.695 172.4 3.5 193 11.6
2004-03-12 09:14:33 51°17.354 2°39.67 175.4 3.6 196 12.6
2004-03-12 09:15:34 51°17.295 2°39.633 185 3.9 206 11.8
2004-03-12 09:16:34 51°17.241 2°39.584 187.4 3.6 210 11.2
2004-03-12 09:17:34 51°17.19 2°39.538 185 3.5 210 11.3
2004-03-12 09:18:33 51°17.141 2°39.496 185.2 3.4 211 11.5
2004-03-12 09:19:34 51°17.092 2°39.45 187.9 3.4 211 11.3
2004-03-12 09:20:34 51°17.043 2°39.404 185.8 3.4 212 10.8
2004-03-12 09:21:33 51°16.997 2°39.359 185.8 3.2 209 10.8
2004-03-12 09:22:34 51°16.95 2°39.315 184.2 3.2 210 10.7
2004-03-12 09:23:33 51°16.903 2°39.276 182.1 3.2 207 10.7
2004-03-12 09:24:33 51°16.856 2°39.239 180.8 3.2 205 11
2004-03-12 09:25:34 51°16.806 2°39.204 178.3 3.2 205 10.4
2004-03-12 09:26:33 51°16.759 2°39.174 178.9 3.2 203 10.5
2004-03-12 09:27:34 51°16.709 2°39.133 185 3.4 209 10.4
2004-03-12 09:28:34 51°16.659 2°39.084 190.4 3.6 213 10.1
2004-03-12 09:29:34 51°16.61 2°39.026 195 3.6 217 10
2004-03-12 09:30:34 51°16.563 2°38.962 196.5 3.7 219 10.2
2004-03-12 09:31:34 51°16.515 2°38.903 193.5 3.6 217 9.7
2004-03-12 09:32:34 51°16.468 2°38.848 190 3.5 215 9.9
2004-03-12 09:33:34 51°16.42 2°38.798 186.8 3.5 214 9.8
2004-03-12 09:34:33 51°16.373 2°38.752 184.4 3.3 208 9.6
2004-03-12 09:35:34 51°16.325 2°38.709 180.8 3.3 210 9.6
2004-03-12 09:36:34 51°16.276 2°38.671 178.7 3.2 204 9.6
2004-03-12 09:37:33 51°16.228 2°38.638 175.9 3.1 202 9
2004-03-12 09:38:33 51°16.18 2°38.609 171.8 3.1 200 9.5
2004-03-12 09:39:33 51°16.132 2°38.583 173.3 3.1 200 9.4
2004-03-12 09:40:34 51°16.08 2°38.552 176.6 3.3 199 9.8
2004-03-12 09:41:33 51°16.029 2°38.516 180.2 3.5 207 9.9
2004-03-12 09:42:33 51°15.976 2°38.471 184.5 3.6 208 9.6
2004-03-12 09:43:33 51°15.923 2°38.418 190 3.9 214 9.5
2004-03-12 09:44:33 51°15.87 2°38.36 193 3.9 217 9.9
2004-03-12 09:45:33 51°15.818 2°38.3 192.3 3.9 215 9.6
2004-03-12 09:46:33 51°15.764 2°38.242 190.9 3.9 214 9.7
2004-03-12 09:47:34 51°15.711 2°38.181 192 4 217 9.3
2004-03-12 09:48:33 51°15.659 2°38.12 192.2 3.9 216 9.4
2004-03-12 09:49:33 51°15.606 2°38.057 193.7 4 219 9.1
2004-03-12 09:50:34 51°15.556 2°37.981 209 4.4 232 8.8
2004-03-12 09:51:34 51°15.519 2°37.872 236 5 249 8.8
2004-03-12 09:52:33 51°15.498 2°37.741 257.9 5.3 263 9.6
2004-03-12 09:53:34 51°15.49 2°37.615 263 4.3 266 10.1
2004-03-12 09:54:33 51°15.484 2°37.514 254.7 3.6 263 9.6
2004-03-12 09:55:33 51°15.477 2°37.427 248.4 3.1 261 10.5
2004-03-12 09:56:34 51°15.46 2°37.342 225.7 4.3 234 10.5
2004-03-12 09:57:33 51°15.396 2°37.307 155.2 4 169 11.3
2004-03-12 09:58:34 51°15.306 2°37.452 131.8 11.3 134 9.3
2004-03-12 09:59:33 51°15.17 2°37.679 130.8 12.2 133 9
2004-03-12 10:00:34 51°15.029 2°37.925 132 12.7 133 9
2004-03-12 10:01:34 51°14.882 2°38.178 131 12.9 133 13.4
2004-03-12 10:02:34 51°14.73 2°38.422 136.7 13 138 14.8
2004-03-12 10:03:33 51°14.571 2°38.646 136.6 12.9 139 15.2
2004-03-12 10:04:33 51°14.4 2°38.862 142.6 13 145 15.9
2004-03-12 10:05:34 51°14.19 2°38.977 172.7 13.4 178 10.3
2004-03-12 10:06:33 51°13.966 2°38.965 184.3 14 190 11.5
2004-03-12 10:07:34 51°13.737 2°38.847 203.1 14.5 207 12.6
2004-03-12 10:08:34 51°13.528 2°38.649 212.1 14.7 213 12.9
2004-03-12 10:09:34 51°13.322 2°38.437 213.1 14.7 213 12.4
2004-03-12 10:10:33 51°13.118 2°38.225 214.4 14.9 214 12.1
2004-03-12 10:11:33 51°12.91 2°38.011 213.3 14.8 213 11.6
2004-03-12 10:12:33 51°12.703 2°37.801 213.4 14.6 212 10.9
2004-03-12 10:13:34 51°12.492 2°37.587 213.2 14.8 212 9.9
2004-03-12 10:14:33 51°12.289 2°37.384 212.8 14.7 212 9.4
2004-03-12 10:15:34 51°12.08 2°37.175 211.9 14.7 211 9.1
2004-03-12 10:16:34 51°11.874 2°36.974 212.2 14.6 211 9.2
2004-03-12 10:17:33 51°11.672 2°36.77 212.7 14.5 212 9
2004-03-12 10:18:33 51°11.464 2°36.564 213.4 14.8 212 9.3
2004-03-12 10:19:34 51°11.247 2°36.375 207.8 14.5 207 9.2
2004-03-12 10:20:33 51°11.036 2°36.198 207.8 14.7 207 9.2
2004-03-12 10:21:33 51°10.817 2°36.036 205.1 14.6 205 9.2
2004-03-12 10:22:34 51°10.594 2°35.872 204.6 14.4 204 8.6
2004-03-12 10:23:34 51°10.377 2°35.712 204.4 14.5 204 9.1
2004-03-12 10:24:33 51°10.165 2°35.547 206.6 14.3 205 9
2004-03-12 10:25:35 51°9.935 2°35.373 206 15.2 207 13.9
2004-03-12 10:26:34 51°9.723 2°35.183 206.4 14.6 206 16.9
2004-03-12 10:27:34 51°9.5 2°35.037 198.1 14.5 201 16.6
2004-03-12 10:28:33 51°9.278 2°34.896 199.1 14.5 202 15.2
2004-03-12 10:29:34 51°9.049 2°34.753 197.4 14.6 200 14.7
2004-03-12 10:30:34 51°8.868 2°34.647 190.1 8.1 198 15.2
2004-03-12 10:31:34 51°8.791 2°34.545 232.2 3.9 239 15.2
2004-03-12 10:32:34 51°8.769 2°34.455 254.2 3.5 253 15.2
2004-03-12 10:33:34 51°8.752 2°34.373 247.5 3.3 250 15.3
2004-03-12 10:34:34 51°8.725 2°34.278 239.6 4.3 242 15
2004-03-12 10:35:34 51°8.688 2°34.176 230.3 4.5 237 15.1
2004-03-12 10:36:33 51°8.644 2°34.086 222.1 4.3 231 15.3
2004-03-12 10:37:34 51°8.602 2°34 222.2 4 233 15.1
2004-03-12 10:38:34 51°8.565 2°33.918 225.4 3.7 236 15.3
2004-03-12 10:39:34 51°8.53 2°33.839 225.7 3.5 235 15.3
2004-03-12 10:40:34 51°8.497 2°33.763 224.2 3.5 233 15.3
2004-03-12 10:41:34 51°8.458 2°33.688 220.9 3.9 231 15.3
2004-03-12 10:42:33 51°8.422 2°33.598 238.6 4.3 240 15.3
2004-03-12 10:43:33 51°8.383 2°33.499 236.3 4.4 238 15.3
2004-03-12 10:44:34 51°8.343 2°33.404 232.9 4.1 236 15.1
2004-03-12 10:45:34 51°8.306 2°33.319 227.2 3.8 232 15
2004-03-12 10:46:34 51°8.268 2°33.244 221.4 3.6 230 15.1
2004-03-12 10:47:33 51°8.232 2°33.172 214.8 3.5 228 15
2004-03-12 10:48:34 51°8.191 2°33.107 210.8 3.4 226 14.7
2004-03-12 10:49:33 51°8.152 2°33.044 206.7 3.4 223 14.8
2004-03-12 10:50:33 51°8.11 2°32.982 210.2 3.5 224 14.8
2004-03-12 10:51:34 51°8.069 2°32.908 219 3.8 231 14.4
2004-03-12 10:52:33 51°8.03 2°32.832 221.8 3.8 231 14.3
2004-03-12 10:53:33 51°7.991 2°32.752 226.4 3.9 233 13.9
2004-03-12 10:54:34 51°7.953 2°32.667 232.9 3.9 237 13.5
2004-03-12 10:55:34 51°7.921 2°32.577 244.7 3.9 243 13.7
2004-03-12 10:56:34 51°7.892 2°32.483 245.4 3.9 244 13.6
2004-03-12 10:57:34 51°7.863 2°32.39 244.7 3.9 244 13.6
2004-03-12 10:58:34 51°7.834 2°32.297 243.9 3.9 242 13.4
2004-03-12 10:59:33 51°7.804 2°32.207 243.7 4 243 13
2004-03-12 11:00:34 51°7.776 2°32.11 249.1 4 246 12.8
2004-03-12 11:01:34 51°7.751 2°32.012 252.9 4 249 12.8
2004-03-12 11:02:34 51°7.728 2°31.914 255.4 4 250 12.5
2004-03-12 11:03:33 51°7.708 2°31.818 259.8 3.9 253 13
2004-03-12 11:04:33 51°7.691 2°31.718 265.3 3.9 256 13.7
2004-03-12 11:05:34 51°7.68 2°31.615 277.4 3.8 265 14.6
2004-03-12 11:06:34 51°7.682 2°31.516 294.6 3.7 277 16.1
2004-03-12 11:07:34 51°7.696 2°31.422 313.9 3.6 288 16.8
2004-03-12 11:08:34 51°7.723 2°31.345 339.5 3.2 308 18
2004-03-12 11:09:34 51°7.758 2°31.297 6.3 2.6 329 17.8
2004-03-12 11:10:33 51°7.797 2°31.278 21.8 2.6 349 17.9
2004-03-12 11:11:33 51°7.847 2°31.276 28.1 3.2 3 18
2004-03-12 11:12:33 51°7.897 2°31.292 36.3 3 16 18.5
2004-03-12 11:13:34 51°7.943 2°31.323 46.2 2.8 31 18.6
2004-03-12 11:14:34 51°7.98 2°31.365 50.8 2.7 38 18.2
2004-03-12 11:15:33 51°8.006 2°31.415 63.8 2.5 58 18.1
2004-03-12 11:16:34 51°8.019 2°31.468 74.5 1.6 79 18.3
2004-03-12 11:17:33 51°8.019 2°31.497 81.4 0.7 104 18.4
2004-03-12 11:18:34 51°8.015 2°31.506 81.3 0.3 157 18.5
2004-03-12 11:19:33 51°8.011 2°31.51 82.9 0.8 101 18.5
2004-03-12 11:20:34 51°8.025 2°31.667 81.3 9.3 81 18.7
2004-03-12 11:21:33 51°8.046 2°31.943 84.2 11.1 83 17.4
2004-03-12 11:22:33 51°8.069 2°32.236 84.6 11.1 82 14.3
2004-03-12 11:23:33 51°8.091 2°32.528 84.9 11.1 82 16.1
2004-03-12 11:24:33 51°8.115 2°32.822 85.5 11.2 83 15.2
2004-03-12 11:25:33 51°8.122 2°32.995 87.8 3.8 86 15.2
2004-03-12 11:26:33 51°8.129 2°33.01 45.8 0.6 317 15.3
2004-03-12 11:27:33 51°8.138 2°32.995 43.2 0.8 311 15.1
2004-03-12 11:28:34 51°8.144 2°32.979 52.9 0.7 293 15.1
2004-03-12 11:29:34 51°8.146 2°32.962 58 0.7 277 15.3
2004-03-12 11:30:34 51°8.147 2°32.944 59.9 0.7 270 15.3
2004-03-12 11:31:33 51°8.146 2°32.925 61.6 0.8 268 15.6
2004-03-12 11:32:34 51°8.145 2°32.903 61.4 0.8 264 15.6
2004-03-12 11:33:33 51°8.144 2°32.881 61.8 0.9 266 15.5
2004-03-12 11:34:34 51°8.143 2°32.855 61 1 268 15.7
2004-03-12 11:35:34 51°8.143 2°32.828 60 1 267 15.9
2004-03-12 11:36:34 51°8.142 2°32.802 62.4 1 270 16
2004-03-12 11:37:33 51°8.142 2°32.775 62.9 1 268 16.1
2004-03-12 11:38:34 51°8.141 2°32.746 64.9 1.1 269 16.2
2004-03-12 11:39:34 51°8.141 2°32.717 65.6 1.1 270 16.3
2004-03-12 11:40:34 51°8.142 2°32.686 65.8 1.2 271 16.2
2004-03-12 11:41:34 51°8.142 2°32.656 67.5 1.1 266 16.1
2004-03-12 11:42:34 51°8.141 2°32.628 69.2 1.1 263 16.4
2004-03-12 11:43:33 51°8.14 2°32.6 69.6 1.1 264 16.6
2004-03-12 11:44:33 51°8.139 2°32.572 69.5 0.7 275 17
2004-03-12 11:45:34 51°8.172 2°32.669 68.3 8.8 62 16.2
2004-03-12 11:46:34 51°8.26 2°32.945 68.9 12.3 64 16.2
2004-03-12 11:47:33 51°8.352 2°33.232 68.8 12.3 64 15.3
2004-03-12 11:48:33 51°8.446 2°33.524 68.8 12.3 64 15.9
2004-03-12 11:49:33 51°8.539 2°33.813 69.1 12.2 62 16.1
2004-03-12 11:50:33 51°8.631 2°34.101 69.3 12.2 63 15.9
2004-03-12 11:51:34 51°8.724 2°34.393 70 12.2 63 15.6
2004-03-12 11:52:33 51°8.81 2°34.679 71.2 12.2 65 15.8
2004-03-12 11:53:33 51°8.898 2°34.969 71.1 12.2 65 15.4
2004-03-12 11:54:34 51°8.987 2°35.266 70.7 12.2 64 15.1
2004-03-12 11:55:34 51°9.074 2°35.557 70.9 12.3 64 15.2
2004-03-12 11:56:33 51°9.159 2°35.845 71.4 12.3 65 15.1
2004-03-12 11:57:33 51°9.247 2°36.139 70.9 12.3 64 14.9
2004-03-12 11:58:33 51°9.334 2°36.433 71.1 12.3 65 14.9
2004-03-12 11:59:34 51°9.422 2°36.734 71.4 12.4 65 14.9
2004-03-12 12:00:34 51°9.507 2°37.033 71.3 12.5 66 14.8
2004-03-12 12:01:33 51°9.591 2°37.329 71.6 12.5 65 14.6
2004-03-12 12:02:33 51°9.678 2°37.63 70.9 12.5 65 14.3
2004-03-12 12:03:33 51°9.761 2°37.935 73.6 12.5 68 14.1
2004-03-12 12:04:34 51°9.837 2°38.25 75.7 12.6 72 13.7
2004-03-12 12:05:33 51°9.901 2°38.56 76.7 12.5 71 13.2
2004-03-12 12:06:33 51°9.966 2°38.876 76.3 12.6 71 12.8
2004-03-12 12:07:33 51°10.034 2°39.194 76.3 12.7 72 12.4
2004-03-12 12:08:34 51°10.102 2°39.516 76.4 12.6 72 11.9
2004-03-12 12:09:33 51°10.166 2°39.827 76.2 12.6 72 11.7
2004-03-12 12:10:33 51°10.232 2°40.145 76.3 12.6 72 11.5
2004-03-12 12:11:33 51°10.296 2°40.464 76.8 12.6 73 11.2
2004-03-12 12:12:33 51°10.362 2°40.782 75.4 12.6 71 11.1
2004-03-12 12:13:33 51°10.426 2°41.1 76.2 12.6 72 11
2004-03-12 12:14:34 51°10.491 2°41.423 76.6 12.6 73 11
2004-03-12 12:15:34 51°10.555 2°41.74 76.2 12.5 72 10.9
2004-03-12 12:16:33 51°10.619 2°42.053 76.1 12.6 72 10.9
2004-03-12 12:17:34 51°10.683 2°42.377 76.3 12.6 72 10.7
2004-03-12 12:18:34 51°10.746 2°42.698 77 12.6 73 10.7
2004-03-12 12:19:33 51°10.806 2°43.012 76.9 12.6 73 10.7
2004-03-12 12:20:33 51°10.876 2°43.326 74.4 12.6 70 10.6
2004-03-12 12:21:33 51°10.947 2°43.642 74.1 12.6 70 10.6
2004-03-12 12:22:34 51°11.019 2°43.964 74.7 12.7 70 10.7
2004-03-12 12:23:33 51°11.095 2°44.272 72.1 12.7 68 10.7
2004-03-12 12:24:34 51°11.175 2°44.591 71.7 12.9 68 10.8
2004-03-12 12:25:34 51°11.254 2°44.907 72.2 12.9 68 10.9
2004-03-12 12:26:34 51°11.333 2°45.221 72.6 12.7 68 10.9
2004-03-12 12:27:33 51°11.412 2°45.527 71.7 12.7 68 11.1
2004-03-12 12:28:33 51°11.491 2°45.838 72.2 12.7 68 11
2004-03-12 12:29:34 51°11.573 2°46.154 72.2 12.6 67 11.1
2004-03-12 12:30:33 51°11.649 2°46.46 72 12.6 68 10.9
2004-03-12 12:31:34 51°11.728 2°46.777 72.4 12.6 69 10.5
2004-03-12 12:32:34 51°11.805 2°47.088 72.5 12.6 68 10.4
2004-03-12 12:33:33 51°11.882 2°47.39 70.4 12.6 65 10.3
2004-03-12 12:34:33 51°11.979 2°47.69 67.7 12.8 64 10.4
2004-03-12 12:35:34 51°12.077 2°48 66.8 12.9 64 10.4
2004-03-12 12:36:34 51°12.173 2°48.302 67.1 12.7 63 10.4
2004-03-12 12:37:33 51°12.266 2°48.598 67.3 12.6 64 10.2
2004-03-12 12:38:33 51°12.359 2°48.896 67.1 12.6 64 10.1
2004-03-12 12:39:34 51°12.46 2°49.193 65.1 12.6 62 10
2004-03-12 12:40:33 51°12.562 2°49.478 63.1 12.6 60 10.1
2004-03-12 12:41:34 51°12.672 2°49.771 63 12.7 59 10.1
2004-03-12 12:42:33 51°12.78 2°50.053 62.9 12.7 59 10.1
2004-03-12 12:43:34 51°12.89 2°50.346 62.7 12.6 59 10
2004-03-12 12:44:34 51°12.998 2°50.636 63.6 12.7 60 10.1
2004-03-12 12:45:34 51°13.105 2°50.925 63.2 12.6 59 10
2004-03-12 12:46:33 51°13.221 2°51.198 60.8 12.7 57 10
2004-03-12 12:47:33 51°13.339 2°51.477 60.4 12.7 57 9.9
2004-03-12 12:48:33 51°13.425 2°51.695 68.8 6.4 66 10.4
2004-03-12 12:49:33 51°13.453 2°51.792 70.4 2.8 63 10.3
2004-03-12 12:50:34 51°13.469 2°51.841 69.4 1.5 60 10.4
2004-03-12 12:51:34 51°13.479 2°51.867 67.3 0.9 54 10.4
2004-03-12 12:52:33 51°13.487 2°51.879 64.5 0.5 30 10.4
2004-03-12 12:53:34 51°13.494 2°51.881 60.1 0.5 350 10.4
2004-03-12 12:54:34 51°13.532 2°51.943 55.9 7.6 49 10.4
2004-03-12 12:55:34 51°13.65 2°52.175 56.6 12.6 52 10.2
2004-03-12 12:56:34 51°13.783 2°52.444 57 13.1 52 10.1
2004-03-12 12:57:34 51°13.918 2°52.717 57.4 13.1 52 10.2
2004-03-12 12:58:34 51°14.054 2°52.99 57.3 13.1 52 10
2004-03-12 12:59:34 51°14.18 2°53.275 62.4 13.1 58 9.7
2004-03-12 13:00:34 51°14.285 2°53.579 67.8 13.2 64 9.5
2004-03-12 13:01:34 51°14.376 2°53.897 73.6 13.2 71 9.5
2004-03-12 13:02:34 51°14.423 2°54.239 86.3 13.2 83 9.3
2004-03-12 13:03:33 51°14.44 2°54.586 93.3 13.4 90 10.4